Time;durP1;ratioP1;P1;durP2;ratioP2;P2;SDS_P1;SDS_P2;PMS_P1;PMS_P2;Temp;Humidity;BMP_temperature;BMP_pressure;BME280_temperature;BME280_humidity;BME280_pressure;Samples;Min_cycle;Max_cycle;Signal;HPM_P1;HPM_P2
2023/12/12 00:01:24;;;;;;;3.85;1.95;;;6.70;93.00;;;;;;5037745;28;20165;-80
2023/12/12 00:03:50;;;;;;;3.67;1.00;;;6.60;93.00;;;;;;5037777;28;20045;-80
2023/12/12 00:06:16;;;;;;;10.55;1.35;;;6.70;93.10;;;;;;5036698;28;20055;-82
2023/12/12 00:08:42;;;;;;;9.15;1.50;;;6.60;92.90;;;;;;5037596;28;20547;-82
2023/12/12 00:11:08;;;;;;;6.95;2.17;;;6.50;92.90;;;;;;5037586;28;20045;-82
2023/12/12 00:13:34;;;;;;;4.60;1.45;;;6.50;92.90;;;;;;5036957;28;20055;-80
2023/12/12 00:15:59;;;;;;;5.07;1.77;;;6.50;92.90;;;;;;5054181;28;20049;-83
2023/12/12 00:18:25;;;;;;;5.30;1.00;;;6.50;93.00;;;;;;5053965;28;20497;-80
2023/12/12 00:20:51;;;;;;;4.80;1.00;;;6.50;92.90;;;;;;5035742;28;20084;-82
2023/12/12 00:23:17;;;;;;;15.90;1.65;;;6.40;92.70;;;;;;5021003;28;20048;-81
2023/12/12 00:25:43;;;;;;;3.38;1.33;;;6.40;92.60;;;;;;5037322;28;20044;-82
2023/12/12 00:28:09;;;;;;;5.80;1.40;;;6.30;92.80;;;;;;5037242;28;20045;-80
2023/12/12 00:30:35;;;;;;;2.50;1.17;;;6.30;92.80;;;;;;5037168;28;20175;-83
2023/12/12 00:33:00;;;;;;;3.65;1.17;;;6.40;92.60;;;;;;5030917;28;20064;-81
2023/12/12 00:35:26;;;;;;;7.78;2.35;;;6.30;92.60;;;;;;5017567;28;20049;-80
2023/12/12 00:37:52;;;;;;;5.43;1.17;;;6.30;92.60;;;;;;5041141;28;20546;-81
2023/12/12 00:40:18;;;;;;;3.95;1.30;;;6.20;92.60;;;;;;5070252;28;20036;-81
2023/12/12 00:42:43;;;;;;;6.40;1.20;;;6.20;92.60;;;;;;5087052;28;20037;-81
2023/12/12 00:45:09;;;;;;;6.38;1.38;;;6.10;92.70;;;;;;5037003;28;20072;-80
2023/12/12 00:47:35;;;;;;;5.07;1.17;;;6.10;92.80;;;;;;5037117;28;20042;-80
2023/12/12 00:50:01;;;;;;;6.43;1.52;;;6.00;93.00;;;;;;5101559;28;20049;-80
2023/12/12 00:52:27;;;;;;;8.13;1.25;;;6.00;93.00;;;;;;5056855;28;20094;-80
2023/12/12 00:54:53;;;;;;;5.30;1.63;;;6.00;92.90;;;;;;5040015;28;20040;-79
2023/12/12 00:57:21;;;;;;;6.13;1.45;;;5.80;93.00;;;;;;5072510;28;20050;-80
2023/12/12 00:59:47;;;;;;;6.68;1.80;;;5.80;93.00;;;;;;5094111;28;20525;-81
2023/12/12 01:02:12;;;;;;;6.57;1.67;;;5.70;93.10;;;;;;5092700;28;20128;-81
2023/12/12 01:04:38;;;;;;;3.95;1.20;;;5.70;93.10;;;;;;5083654;28;20040;-83
2023/12/12 01:07:04;;;;;;;3.10;2.00;;;5.60;93.20;;;;;;5053140;28;20473;-80
2023/12/12 01:09:29;;;;;;;6.10;1.70;;;5.60;93.30;;;;;;5019955;28;20040;-80
2023/12/12 01:11:55;;;;;;;4.82;1.55;;;5.60;93.40;;;;;;5036434;28;20048;-82
2023/12/12 01:14:21;;;;;;;2.70;1.40;;;5.60;93.50;;;;;;5019979;28;20393;-79
2023/12/12 01:16:46;;;;;;;5.10;1.42;;;5.40;93.20;;;;;;5086384;28;20045;-81
2023/12/12 01:19:12;;;;;;;6.40;1.60;;;5.50;93.60;;;;;;5036172;28;20037;-81
2023/12/12 01:21:38;;;;;;;2.83;1.70;;;5.40;93.40;;;;;;5042935;28;20473;-81
2023/12/12 01:24:04;;;;;;;2.90;1.55;;;5.30;93.40;;;;;;5106973;28;20036;-80
2023/12/12 01:26:29;;;;;;;7.25;1.80;;;5.20;93.30;;;;;;5039765;28;20531;-80
2023/12/12 01:28:55;;;;;;;4.90;1.90;;;5.10;93.40;;;;;;5056348;28;20121;-80
2023/12/12 01:31:21;;;;;;;6.60;1.92;;;5.10;93.40;;;;;;5055878;28;20037;-80
2023/12/12 01:33:47;;;;;;;4.63;1.67;;;5.10;93.40;;;;;;5100400;28;20039;-82
2023/12/12 01:36:13;;;;;;;8.05;1.50;;;5.00;93.40;;;;;;5055975;28;20045;-79
2023/12/12 01:38:39;;;;;;;6.00;1.90;;;5.00;93.40;;;;;;5072177;28;20079;-80
2023/12/12 01:41:05;;;;;;;5.43;1.83;;;4.90;93.50;;;;;;5072328;28;20040;-82
2023/12/12 01:43:32;;;;;;;6.90;2.53;;;4.80;93.40;;;;;;5055708;28;20492;-80
2023/12/12 01:46:11;;;;;;;6.13;2.38;;;4.80;93.60;;;;;;5039087;28;20037;-79
2023/12/12 01:48:37;;;;;;;5.82;1.65;;;4.70;93.60;;;;;;5072464;28;20476;-80
2023/12/12 01:51:05;;;;;;;4.43;2.10;;;4.60;93.70;;;;;;5104646;28;20079;-83
2023/12/12 01:53:38;;;;;;;7.50;2.35;;;4.60;93.90;;;;;;5039026;28;20044;-82
2023/12/12 01:56:05;;;;;;;6.70;2.75;;;4.60;93.90;;;;;;5072510;28;20054;-83
2023/12/12 01:58:32;;;;;;;10.10;2.30;;;4.50;94.00;;;;;;5055437;28;20063;-81
2023/12/12 02:00:58;;;;;;;7.38;2.20;;;4.40;94.10;;;;;;5055344;28;20041;-80
2023/12/12 02:03:24;;;;;;;6.78;2.00;;;4.40;94.30;;;;;;5072302;28;20045;-80
2023/12/12 02:05:52;;;;;;;5.05;1.90;;;4.40;94.40;;;;;;5072283;28;20135;-80
2023/12/12 02:08:18;;;;;;;6.32;2.00;;;4.30;94.50;;;;;;5055385;28;20109;-82
2023/12/12 02:10:44;;;;;;;7.78;1.70;;;4.30;94.50;;;;;;5055490;28;20044;-80
2023/12/12 02:13:10;;;;;;;4.10;2.22;;;4.20;94.70;;;;;;5038769;28;20098;-82
2023/12/12 02:15:36;;;;;;;5.90;1.77;;;4.20;94.80;;;;;;5055334;28;20037;-78
2023/12/12 02:18:01;;;;;;;8.73;1.85;;;4.10;94.70;;;;;;5038605;28;20109;-80
2023/12/12 02:20:27;;;;;;;7.78;2.00;;;4.10;94.80;;;;;;5038529;28;20043;-81
2023/12/12 02:22:52;;;;;;;7.15;2.78;;;4.10;94.90;;;;;;5038624;28;20107;-81
2023/12/12 02:25:18;;;;;;;8.70;2.20;;;4.10;94.90;;;;;;5038555;28;20039;-79
2023/12/12 02:27:44;;;;;;;9.43;2.05;;;4.10;95.00;;;;;;5071728;28;20044;-80
2023/12/12 02:30:11;;;;;;;5.25;1.45;;;4.10;95.10;;;;;;5054925;28;20044;-81
2023/12/12 02:32:37;;;;;;;8.27;2.30;;;4.10;95.20;;;;;;5070524;28;20040;-80
2023/12/12 02:35:03;;;;;;;7.85;2.00;;;4.10;95.20;;;;;;5068238;28;20511;-82
2023/12/12 02:37:29;;;;;;;5.55;2.50;;;4.10;95.00;;;;;;5054234;28;20548;-80
2023/12/12 02:39:55;;;;;;;7.30;3.03;;;4.00;95.00;;;;;;5053098;28;20119;-79
2023/12/12 02:42:20;;;;;;;6.50;2.00;;;4.00;95.10;;;;;;5053729;28;20047;-82
2023/12/12 02:44:46;;;;;;;5.63;2.20;;;4.00;95.20;;;;;;5054829;28;20142;-82
2023/12/12 02:47:12;;;;;;;6.93;2.25;;;4.00;95.20;;;;;;5071602;28;20480;-83
2023/12/12 02:49:37;;;;;;;5.35;1.90;;;4.00;95.00;;;;;;5055064;28;20036;-82
2023/12/12 02:52:04;;;;;;;6.32;2.40;;;4.00;95.20;;;;;;5054919;28;20036;-81
2023/12/12 02:54:29;;;;;;;7.95;3.08;;;3.90;95.10;;;;;;5071875;28;20389;-81
2023/12/12 02:56:55;;;;;;;8.55;3.20;;;3.90;95.10;;;;;;5038228;28;20062;-81
2023/12/12 02:59:21;;;;;;;10.82;2.60;;;3.90;95.20;;;;;;5033656;28;20037;-81
2023/12/12 03:01:50;;;;;;;8.85;3.10;;;3.90;95.10;;;;;;5034966;28;20179;-80
2023/12/12 03:04:16;;;;;;;9.05;2.90;;;3.90;95.30;;;;;;5051397;28;20393;-82
2023/12/12 03:06:42;;;;;;;8.15;2.53;;;3.90;95.40;;;;;;5051552;28;20037;-81
2023/12/12 03:09:07;;;;;;;13.95;2.80;;;3.80;95.40;;;;;;5034713;28;20060;-79
2023/12/12 03:11:34;;;;;;;11.00;3.38;;;3.80;95.50;;;;;;5051323;28;20456;-81
2023/12/12 03:14:00;;;;;;;10.98;3.17;;;3.80;95.50;;;;;;5051262;28;20094;-82
2023/12/12 03:16:26;;;;;;;3.92;2.30;;;3.80;95.60;;;;;;5068022;28;20400;-80
2023/12/12 03:18:52;;;;;;;10.80;2.97;;;3.70;95.70;;;;;;5054524;28;20045;-82
2023/12/12 03:21:18;;;;;;;5.13;2.78;;;3.70;95.70;;;;;;5054591;28;20033;-82
2023/12/12 03:23:46;;;;;;;8.13;2.83;;;3.70;95.80;;;;;;5054721;28;20086;-82
2023/12/12 03:26:12;;;;;;;6.15;3.13;;;3.70;95.90;;;;;;5071106;28;20075;-81
2023/12/12 03:28:38;;;;;;;7.55;3.78;;;3.70;96.00;;;;;;5037879;28;20075;-82
2023/12/12 03:31:05;;;;;;;10.15;4.20;;;3.60;96.10;;;;;;5054555;28;20041;-80
2023/12/12 03:33:30;;;;;;;6.05;3.42;;;3.60;96.20;;;;;;5069723;28;20488;-80
2023/12/12 03:35:56;;;;;;;11.23;3.90;;;3.60;96.20;;;;;;5067519;28;20036;-80
2023/12/12 03:38:22;;;;;;;6.75;2.97;;;3.60;96.30;;;;;;5070918;28;20040;-83
2023/12/12 03:40:48;;;;;;;8.07;2.72;;;3.60;96.30;;;;;;5071203;28;20036;-82
2023/12/12 03:43:13;;;;;;;15.70;4.05;;;3.60;96.50;;;;;;5054278;28;20481;-81
2023/12/12 03:45:39;;;;;;;13.52;3.97;;;3.60;96.40;;;;;;5054321;28;20079;-80
2023/12/12 03:48:06;;;;;;;10.75;3.70;;;3.70;96.40;;;;;;5038198;28;20449;-82
2023/12/12 03:50:32;;;;;;;12.20;3.78;;;3.70;96.50;;;;;;5057025;28;20079;-80
2023/12/12 03:52:58;;;;;;;8.98;3.25;;;3.70;96.60;;;;;;5057031;28;20084;-82
2023/12/12 03:55:23;;;;;;;8.77;4.00;;;3.70;96.60;;;;;;5057803;28;20045;-80
2023/12/12 03:57:49;;;;;;;9.50;3.03;;;3.80;96.60;;;;;;5057727;28;20041;-81
2023/12/12 04:00:15;;;;;;;8.48;3.40;;;3.80;96.60;;;;;;5074432;28;20041;-81
2023/12/12 04:02:41;;;;;;;10.60;4.53;;;3.80;96.60;;;;;;5074609;28;20169;-80
2023/12/12 04:05:10;;;;;;;9.32;3.60;;;3.80;96.60;;;;;;5041443;28;20044;-79
2023/12/12 04:07:37;;;;;;;11.25;4.40;;;3.80;96.60;;;;;;5057880;28;20458;-83
2023/12/12 04:10:07;;;;;;;8.82;3.60;;;3.80;96.60;;;;;;5056269;28;20126;-84
2023/12/12 04:12:34;;;;;;;6.75;4.00;;;3.90;96.60;;;;;;5057845;28;20054;-81
2023/12/12 04:15:00;;;;;;;9.15;4.05;;;3.90;96.60;;;;;;5057445;28;20049;-79
2023/12/12 04:17:25;;;;;;;8.60;4.05;;;3.80;96.50;;;;;;5074261;28;20048;-78
2023/12/12 04:19:51;;;;;;;10.38;4.00;;;3.80;96.60;;;;;;5057424;28;20495;-81
2023/12/12 04:22:17;;;;;;;11.63;4.88;;;3.80;96.60;;;;;;5057487;28;20041;-83
2023/12/12 04:24:42;;;;;;;7.72;4.20;;;3.80;96.60;;;;;;5039349;28;20032;-80
2023/12/12 04:27:08;;;;;;;11.43;3.85;;;3.90;96.70;;;;;;5057579;28;20041;-79
2023/12/12 04:29:34;;;;;;;12.77;4.18;;;3.80;96.80;;;;;;5040629;28;20435;-82
2023/12/12 04:31:59;;;;;;;7.35;4.35;;;3.80;96.80;;;;;;5040581;28;20040;-80
2023/12/12 04:34:25;;;;;;;8.60;4.30;;;3.80;96.90;;;;;;5057378;28;20037;-81
2023/12/12 04:36:51;;;;;;;12.20;4.65;;;3.90;96.90;;;;;;5054570;28;20481;-79
2023/12/12 04:39:20;;;;;;;14.55;5.70;;;3.90;96.90;;;;;;5056944;28;20052;-81
2023/12/12 04:41:46;;;;;;;9.52;4.70;;;3.90;96.90;;;;;;5073835;28;20384;-80
2023/12/12 04:44:12;;;;;;;11.85;4.72;;;4.00;96.80;;;;;;5073909;28;20044;-80
2023/12/12 04:46:37;;;;;;;12.02;5.25;;;4.00;96.90;;;;;;5040221;28;20485;-82
2023/12/12 04:49:03;;;;;;;9.93;5.32;;;4.00;96.90;;;;;;5040317;28;20067;-82
2023/12/12 04:51:29;;;;;;;11.30;5.05;;;4.00;96.90;;;;;;5073435;28;20378;-81
2023/12/12 04:53:55;;;;;;;14.05;5.50;;;4.00;96.90;;;;;;5056010;28;20404;-81
2023/12/12 04:56:20;;;;;;;17.58;5.70;;;4.00;96.90;;;;;;5056716;28;20040;-80
2023/12/12 04:58:46;;;;;;;10.60;4.95;;;4.00;96.90;;;;;;5073271;28;20051;-81
2023/12/12 05:01:15;;;;;;;12.07;5.68;;;4.00;96.80;;;;;;5073051;28;20032;-82
2023/12/12 05:03:41;;;;;;;18.65;6.30;;;4.00;96.80;;;;;;5073197;28;20037;-81
2023/12/12 05:06:11;;;;;;;10.68;5.20;;;4.00;96.80;;;;;;5073182;28;20036;-82
2023/12/12 05:08:37;;;;;;;12.90;6.93;;;3.90;96.70;;;;;;5073389;28;20411;-82
2023/12/12 05:11:04;;;;;;;11.00;5.10;;;3.90;96.80;;;;;;5071584;28;20135;-81
2023/12/12 05:13:30;;;;;;;10.43;5.35;;;3.90;96.80;;;;;;5056645;28;20131;-81
2023/12/12 05:15:56;;;;;;;18.70;7.78;;;3.80;96.80;;;;;;5072951;28;20584;-82
2023/12/12 05:18:22;;;;;;;17.48;9.68;;;3.80;96.80;;;;;;5056268;28;20044;-80
2023/12/12 05:20:48;;;;;;;18.20;8.77;;;3.80;96.80;;;;;;5069240;28;20036;-84
2023/12/12 05:23:14;;;;;;;16.50;8.00;;;3.80;96.80;;;;;;5039545;28;20044;-83
2023/12/12 05:25:42;;;;;;;17.38;12.38;;;3.70;96.80;;;;;;5073037;28;20041;-82
2023/12/12 05:28:08;;;;;;;16.33;8.68;;;3.80;96.90;;;;;;5056506;28;20043;-81
2023/12/12 05:30:33;;;;;;;14.25;7.72;;;3.80;97.00;;;;;;5072770;28;20048;-80
2023/12/12 05:32:59;;;;;;;15.07;6.75;;;3.70;97.00;;;;;;5056002;28;20421;-82
2023/12/12 05:35:25;;;;;;;15.27;6.72;;;3.80;97.00;;;;;;5072578;28;20178;-81
2023/12/12 05:37:51;;;;;;;16.45;11.07;;;3.70;97.10;;;;;;5071317;28;20053;-82
2023/12/12 05:40:16;;;;;;;18.90;8.57;;;3.80;97.10;;;;;;5055798;28;20044;-81
2023/12/12 05:42:43;;;;;;;11.77;6.95;;;3.80;97.10;;;;;;5072678;28;20029;-83
2023/12/12 05:45:09;;;;;;;13.82;7.05;;;3.80;97.10;;;;;;5106588;28;20045;-82
2023/12/12 05:47:35;;;;;;;15.68;7.60;;;3.80;97.20;;;;;;5039249;28;20044;-81
2023/12/12 05:50:02;;;;;;;15.57;8.30;;;3.90;97.20;;;;;;5072278;28;20044;-83
2023/12/12 05:52:28;;;;;;;16.95;7.80;;;3.80;97.20;;;;;;5055779;28;20392;-82
2023/12/12 05:54:54;;;;;;;14.85;8.20;;;3.90;97.30;;;;;;5034962;28;20049;-83
2023/12/12 05:57:20;;;;;;;16.25;7.63;;;3.90;97.30;;;;;;5035509;28;20132;-84
2023/12/12 05:59:47;;;;;;;16.75;8.40;;;4.00;97.30;;;;;;5035756;28;20036;-81
2023/12/12 06:02:13;;;;;;;16.02;8.27;;;4.00;97.30;;;;;;5019158;28;20041;-80
2023/12/12 06:04:38;;;;;;;16.65;7.95;;;4.00;97.30;;;;;;5052399;28;20047;-80
2023/12/12 06:07:05;;;;;;;29.85;11.23;;;4.00;97.40;;;;;;5035574;28;20564;-79
2023/12/12 06:09:31;;;;;;;21.13;9.88;;;4.10;97.30;;;;;;5035399;28;20041;-79
2023/12/12 06:11:58;;;;;;;18.40;9.50;;;4.10;97.30;;;;;;5077976;28;20477;-79
2023/12/12 06:14:25;;;;;;;16.55;8.85;;;4.10;97.40;;;;;;5055497;28;20032;-80
2023/12/12 06:16:50;;;;;;;21.23;9.27;;;4.10;97.40;;;;;;5055273;28;20063;-78
2023/12/12 06:19:16;;;;;;;13.45;7.53;;;4.10;97.40;;;;;;5079508;28;20044;-80
2023/12/12 06:21:41;;;;;;;14.77;9.02;;;4.10;97.40;;;;;;5082762;28;20072;-81
2023/12/12 06:24:07;;;;;;;16.35;8.93;;;4.20;97.40;;;;;;5063601;28;20101;-80
2023/12/12 06:26:34;;;;;;;16.90;8.30;;;4.10;97.40;;;;;;5074969;28;20044;-80
2023/12/12 06:29:00;;;;;;;17.23;8.73;;;4.10;97.40;;;;;;5076826;28;20428;-79
2023/12/12 06:31:25;;;;;;;15.88;8.43;;;4.10;97.40;;;;;;5038399;28;20036;-80
2023/12/12 06:33:52;;;;;;;19.15;9.45;;;4.10;97.30;;;;;;5071796;28;20040;-80
2023/12/12 06:36:17;;;;;;;18.70;9.55;;;4.00;97.40;;;;;;5055014;28;20072;-80
2023/12/12 06:38:43;;;;;;;19.80;10.00;;;4.00;97.40;;;;;;5067948;28;20133;-80
2023/12/12 06:41:09;;;;;;;17.02;9.05;;;4.00;97.40;;;;;;5055250;28;20044;-80
2023/12/12 06:43:35;;;;;;;18.65;9.55;;;4.00;97.40;;;;;;5055013;28;20048;-80
2023/12/12 06:46:02;;;;;;;17.48;8.95;;;4.00;97.40;;;;;;5071561;28;20128;-81
2023/12/12 06:48:28;;;;;;;21.55;10.07;;;4.00;97.40;;;;;;5055244;28;20499;-80
2023/12/12 06:50:53;;;;;;;16.30;9.48;;;4.00;97.40;;;;;;5054790;28;20084;-80
2023/12/12 06:53:19;;;;;;;19.45;8.88;;;4.00;97.50;;;;;;5071515;28;20314;-79
2023/12/12 06:55:46;;;;;;;18.50;9.43;;;4.00;97.50;;;;;;5070500;28;20045;-81
2023/12/12 06:58:11;;;;;;;21.50;10.57;;;4.10;97.50;;;;;;5054673;28;20044;-80
2023/12/12 07:00:40;;;;;;;14.38;8.20;;;4.10;97.50;;;;;;5063796;28;20047;-81
2023/12/12 07:03:06;;;;;;;20.88;10.77;;;4.10;97.60;;;;;;5074712;28;20039;-80
2023/12/12 07:05:33;;;;;;;20.73;9.40;;;4.10;97.60;;;;;;5058071;28;20036;-80
2023/12/12 07:07:58;;;;;;;23.25;11.98;;;4.20;97.60;;;;;;5074946;28;20040;-80
2023/12/12 07:10:24;;;;;;;28.13;13.55;;;4.20;97.60;;;;;;5063546;28;20093;-80
2023/12/12 07:12:50;;;;;;;24.08;12.07;;;4.30;97.70;;;;;;5054642;28;20145;-78
2023/12/12 07:15:16;;;;;;;33.47;15.35;;;4.30;97.60;;;;;;5054898;28;20048;-79
2023/12/12 07:17:41;;;;;;;37.20;14.18;;;4.30;97.70;;;;;;5038110;28;20520;-79
2023/12/12 07:20:11;;;;;;;32.00;16.27;;;4.40;97.80;;;;;;5054533;28;20094;-80
2023/12/12 07:22:38;;;;;;;42.35;18.17;;;4.50;97.80;;;;;;5071660;28;20041;-81
2023/12/12 07:25:04;;;;;;;34.90;16.58;;;4.60;98.00;;;;;;5075071;28;20120;-82
2023/12/12 07:27:30;;;;;;;42.83;17.30;;;4.60;97.90;;;;;;5073523;28;20120;-81
2023/12/12 07:29:55;;;;;;;48.55;18.85;;;4.60;97.90;;;;;;5041329;28;20040;-80
2023/12/12 07:32:21;;;;;;;36.63;17.05;;;4.70;98.00;;;;;;5074801;28;20093;-78
2023/12/12 07:34:47;;;;;;;33.80;15.65;;;4.70;97.90;;;;;;5058017;28;20049;-80
2023/12/12 07:37:12;;;;;;;36.53;15.93;;;4.80;97.90;;;;;;5057948;28;20047;-82
2023/12/12 07:39:38;;;;;;;34.63;16.15;;;4.80;98.00;;;;;;5066156;28;20041;-82
2023/12/12 07:42:04;;;;;;;32.10;15.65;;;4.80;98.00;;;;;;5037710;28;20071;-83
2023/12/12 07:44:30;;;;;;;42.83;18.55;;;4.80;97.90;;;;;;5054244;28;20037;-82
2023/12/12 07:46:55;;;;;;;40.45;18.15;;;4.90;97.90;;;;;;5054520;28;20091;-80
2023/12/12 07:49:21;;;;;;;42.78;20.20;;;4.90;98.00;;;;;;5037293;28;20496;-81
2023/12/12 07:51:47;;;;;;;48.28;19.98;;;4.90;97.90;;;;;;5053238;28;20041;-81
2023/12/12 07:54:13;;;;;;;47.38;19.67;;;4.90;98.00;;;;;;5054396;28;20045;-81
2023/12/12 07:56:38;;;;;;;70.50;25.42;;;4.90;98.00;;;;;;5073061;28;20041;-81
2023/12/12 07:59:04;;;;;;;81.40;25.50;;;4.90;98.10;;;;;;5074221;28;20039;-82
2023/12/12 08:01:30;;;;;;;69.00;23.20;;;4.90;98.10;;;;;;5074264;28;20067;-81
2023/12/12 08:03:55;;;;;;;67.75;34.83;;;5.00;98.10;;;;;;5041114;28;20043;-82
2023/12/12 08:06:21;;;;;;;114.97;66.00;;;5.00;98.10;;;;;;5057516;28;20033;-80
2023/12/12 08:08:47;;;;;;;83.82;36.75;;;5.00;98.20;;;;;;5062394;28;20043;-80
2023/12/12 08:11:13;;;;;;;150.45;34.00;;;5.00;98.20;;;;;;5056434;28;20072;-81
2023/12/12 08:13:39;;;;;;;99.28;26.67;;;5.00;98.20;;;;;;5074576;28;20087;-82
2023/12/12 08:16:05;;;;;;;170.70;27.00;;;5.00;98.20;;;;;;5040929;28;20037;-81
2023/12/12 08:18:31;;;;;;;141.15;35.70;;;5.00;98.20;;;;;;5057193;28;20036;-81
2023/12/12 08:20:58;;;;;;;163.65;30.48;;;4.90;98.20;;;;;;5074023;28;20051;-79
2023/12/12 08:23:23;;;;;;;210.15;28.10;;;4.90;98.30;;;;;;5057665;28;20033;-80
2023/12/12 08:25:49;;;;;;;176.90;27.83;;;4.90;98.40;;;;;;5073976;28;20036;-79
2023/12/12 08:28:15;;;;;;;98.40;21.45;;;4.90;98.30;;;;;;5057193;28;20044;-80
2023/12/12 08:30:41;;;;;;;230.13;31.60;;;4.90;98.20;;;;;;5106242;28;20051;-80
2023/12/12 08:33:07;;;;;;;388.77;42.83;;;4.80;98.20;;;;;;5074001;28;20040;-79
2023/12/12 08:35:32;;;;;;;128.93;38.80;;;4.90;98.20;;;;;;5076361;28;20407;-81
2023/12/12 08:37:58;;;;;;;229.55;44.55;;;4.90;98.20;;;;;;5093610;28;20055;-81
2023/12/12 08:40:24;;;;;;;383.05;51.35;;;4.90;98.20;;;;;;5072363;28;20103;-81
2023/12/12 08:42:50;;;;;;;150.63;32.28;;;4.90;98.30;;;;;;5037682;28;20484;-81
2023/12/12 08:45:15;;;;;;;159.68;32.78;;;4.90;98.40;;;;;;5054309;28;20041;-81
2023/12/12 08:47:41;;;;;;;146.38;30.75;;;4.90;98.30;;;;;;5053829;28;20041;-79
2023/12/12 08:50:09;;;;;;;60.40;20.73;;;4.90;98.30;;;;;;5053829;28;20041;-79
2023/12/12 08:52:35;;;;;;;162.93;38.25;;;4.90;98.30;;;;;;5053895;28;20041;-81
2023/12/12 08:55:03;;;;;;;140.60;27.27;;;4.90;98.30;;;;;;5070174;28;20055;-80
2023/12/12 08:57:29;;;;;;;102.10;30.10;;;4.90;98.30;;;;;;5086206;28;20059;-80
2023/12/12 08:59:55;;;;;;;88.18;24.33;;;4.80;98.30;;;;;;5073820;28;20093;-80
2023/12/12 09:02:21;;;;;;;64.43;21.00;;;4.80;98.30;;;;;;5076662;28;20434;-81
2023/12/12 09:04:46;;;;;;;100.65;25.77;;;4.80;98.30;;;;;;5094756;28;20040;-80
2023/12/12 09:07:12;;;;;;;127.63;31.05;;;4.80;98.40;;;;;;5060278;28;20038;-80
2023/12/12 09:09:38;;;;;;;128.02;28.88;;;4.80;98.40;;;;;;5076887;28;20085;-79
2023/12/12 09:12:05;;;;;;;76.90;23.58;;;4.70;98.50;;;;;;5093723;28;20042;-80
2023/12/12 09:14:31;;;;;;;66.97;22.15;;;4.70;98.50;;;;;;5070630;28;20111;-81
2023/12/12 09:16:56;;;;;;;66.20;24.00;;;4.80;98.50;;;;;;5073593;28;20076;-81
2023/12/12 09:19:22;;;;;;;133.82;33.65;;;4.80;98.60;;;;;;5056657;28;20036;-79
2023/12/12 09:21:49;;;;;;;115.13;30.67;;;4.90;98.60;;;;;;5056829;28;20107;-81
2023/12/12 09:24:16;;;;;;;100.55;27.42;;;4.90;98.60;;;;;;5041536;28;20044;-81
2023/12/12 09:26:43;;;;;;;169.68;34.83;;;5.00;98.60;;;;;;5090708;28;20488;-81
2023/12/12 09:29:10;;;;;;;218.02;41.58;;;5.10;98.60;;;;;;5055567;28;20040;-82
2023/12/12 09:31:35;;;;;;;113.57;31.83;;;5.10;98.60;;;;;;5036493;28;20055;-81
2023/12/12 09:34:01;;;;;;;97.03;31.27;;;5.10;98.70;;;;;;5053277;28;20036;-85
2023/12/12 09:36:27;;;;;;;150.30;39.00;;;5.10;98.70;;;;;;5053120;28;20045;-86
2023/12/12 09:38:52;;;;;;;116.93;33.13;;;5.10;98.50;;;;;;5019759;28;20436;-80
2023/12/12 09:41:23;;;;;;;64.68;25.45;;;5.20;98.70;;;;;;5036213;28;20037;-83
2023/12/12 09:43:50;;;;;;;64.30;24.10;;;5.20;98.60;;;;;;5052808;28;20077;-81
2023/12/12 09:46:17;;;;;;;84.68;32.05;;;5.30;98.70;;;;;;5085713;28;20056;-84
2023/12/12 09:48:45;;;;;;;125.65;37.10;;;5.30;98.60;;;;;;5052591;28;20041;-80
2023/12/12 09:51:14;;;;;;;272.00;53.40;;;5.30;98.60;;;;;;5052737;28;20045;-81
2023/12/12 09:53:46;;;;;;;105.18;35.85;;;5.30;98.70;;;;;;5036185;28;20048;-80
2023/12/12 09:56:16;;;;;;;154.55;40.90;;;5.40;98.50;;;;;;5053513;28;20124;-78
2023/12/12 09:58:44;;;;;;;155.63;41.00;;;5.40;98.50;;;;;;5056076;28;20044;-80
2023/12/12 10:01:10;;;;;;;95.38;37.30;;;5.40;98.60;;;;;;5055881;28;20079;-83
2023/12/12 10:03:38;;;;;;;62.25;32.47;;;5.40;98.60;;;;;;5072468;28;20047;-84
2023/12/12 10:06:08;;;;;;;76.50;33.92;;;5.40;98.60;;;;;;5038577;28;20032;-78
2023/12/12 10:08:37;;;;;;;79.55;36.00;;;5.50;98.40;;;;;;5039543;28;20132;-79
2023/12/12 10:11:08;;;;;;;129.50;41.92;;;5.50;98.50;;;;;;5072524;28;20131;-81
2023/12/12 10:13:56;;;;;;;74.72;32.88;;;5.40;98.50;;;;;;5027401;28;20047;-80
2023/12/12 10:16:25;;;;;;;120.60;39.78;;;5.50;98.50;;;;;;5052434;28;20047;-82
2023/12/12 10:18:52;;;;;;;100.63;37.47;;;5.50;98.50;;;;;;5036183;28;20646;-81
2023/12/12 10:21:18;;;;;;;95.65;38.05;;;5.50;98.50;;;;;;5035886;28;20044;-81
2023/12/12 10:23:49;;;;;;;57.83;31.90;;;5.50;98.40;;;;;;5052548;28;20040;-83
2023/12/12 10:26:21;;;;;;;63.58;33.20;;;5.60;98.50;;;;;;5035991;28;20393;-81
2023/12/12 10:28:47;;;;;;;57.17;30.63;;;5.60;98.40;;;;;;5052700;28;20482;-81
2023/12/12 10:31:13;;;;;;;65.10;32.47;;;5.60;98.40;;;;;;5035751;28;20049;-82
2023/12/12 10:33:38;;;;;;;90.32;39.08;;;5.70;98.40;;;;;;5035583;28;20048;-80
2023/12/12 10:36:09;;;;;;;57.80;30.08;;;5.70;98.30;;;;;;5052441;28;20037;-80
2023/12/12 10:38:38;;;;;;;71.47;33.67;;;5.70;98.30;;;;;;5052007;28;20440;-79
2023/12/12 10:41:24;;;;;;;58.83;31.50;;;5.70;98.30;;;;;;5085687;28;20047;-81
2023/12/12 10:43:50;;;;;;;57.67;32.42;;;5.70;98.40;;;;;;5052254;28;20142;-80
2023/12/12 10:46:18;;;;;;;56.63;33.65;;;5.80;98.40;;;;;;5052249;28;20080;-82
2023/12/12 10:48:46;;;;;;;59.70;33.25;;;5.80;98.40;;;;;;5035455;28;20080;-83
2023/12/12 10:51:14;;;;;;;55.28;32.67;;;5.90;98.50;;;;;;5085734;28;20463;-80
2023/12/12 10:53:44;;;;;;;53.22;30.48;;;5.90;98.60;;;;;;5036166;28;20037;-81
2023/12/12 10:56:11;;;;;;;49.58;29.85;;;6.00;98.60;;;;;;5068772;28;20076;-82
2023/12/12 10:58:39;;;;;;;48.65;28.80;;;6.00;98.60;;;;;;5036921;28;20040;-80
2023/12/12 11:01:07;;;;;;;39.42;24.92;;;6.10;98.40;;;;;;5039601;28;20039;-82
2023/12/12 11:03:35;;;;;;;45.47;25.02;;;6.10;98.40;;;;;;5023254;28;20041;-81
2023/12/12 11:06:01;;;;;;;39.35;24.70;;;6.20;98.40;;;;;;5023290;28;20045;-79
2023/12/12 11:08:27;;;;;;;39.72;23.67;;;6.20;98.40;;;;;;5039363;28;20544;-81
2023/12/12 11:10:54;;;;;;;31.23;20.00;;;6.20;98.50;;;;;;5039218;28;20076;-81
2023/12/12 11:13:24;;;;;;;37.17;23.38;;;6.30;98.40;;;;;;5056031;28;20472;-81
2023/12/12 11:15:52;;;;;;;26.95;18.25;;;6.30;98.50;;;;;;5055807;28;20048;-82
2023/12/12 11:18:20;;;;;;;34.63;21.38;;;6.40;98.40;;;;;;5039635;28;20040;-79
2023/12/12 11:20:46;;;;;;;31.85;21.17;;;6.30;98.30;;;;;;5055583;28;20040;-79
2023/12/12 11:23:53;;;;;;;32.65;19.80;;;6.30;98.30;;;;;;5055950;28;20037;-81
2023/12/12 11:26:24;;;;;;;29.50;18.83;;;6.40;98.30;;;;;;5039059;28;20033;-81
2023/12/12 11:28:50;;;;;;;27.65;19.25;;;6.40;98.30;;;;;;5023549;28;20476;-78
2023/12/12 11:31:26;;;;;;;34.40;21.48;;;6.40;98.30;;;;;;5065332;28;20079;-83
2023/12/12 11:34:04;;;;;;;32.15;21.60;;;6.40;98.30;;;;;;5095782;28;20035;-81
2023/12/12 11:36:59;;;;;;;38.55;21.75;;;6.40;98.30;;;;;;5095764;28;20050;-83
2023/12/12 11:39:50;;;;;;;32.05;22.55;;;6.40;98.30;;;;;;5078582;28;20101;-78
2023/12/12 11:42:24;;;;;;;40.58;23.33;;;6.50;98.20;;;;;;5095562;28;20059;-82
2023/12/12 11:44:58;;;;;;;36.80;23.40;;;6.50;98.30;;;;;;5062310;28;20131;-80
2023/12/12 11:47:26;;;;;;;38.53;23.98;;;6.50;98.30;;;;;;5079117;28;20044;-82
2023/12/12 11:50:19;;;;;;;37.63;22.55;;;6.50;98.30;;;;;;5095397;28;20506;-79
2023/12/12 11:52:45;;;;;;;43.28;25.40;;;6.50;98.30;;;;;;5095489;28;20036;-82
2023/12/12 11:55:20;;;;;;;42.33;23.17;;;6.50;98.30;;;;;;5095355;28;20093;-80
2023/12/12 11:57:46;;;;;;;46.72;25.80;;;6.60;98.20;;;;;;5061513;28;20043;-79
2023/12/12 12:00:22;;;;;;;39.28;23.55;;;6.60;98.20;;;;;;5094251;28;20051;-80
2023/12/12 12:02:47;;;;;;;43.88;25.55;;;6.60;98.20;;;;;;5076230;28;20127;-80
2023/12/12 12:05:14;;;;;;;48.95;27.08;;;6.70;98.20;;;;;;5027825;28;20435;-77
2023/12/12 12:07:40;;;;;;;45.17;26.05;;;6.70;98.20;;;;;;5061803;28;21215;-78
2023/12/12 12:10:08;;;;;;;40.80;24.05;;;6.80;98.20;;;;;;5061418;28;20044;-79
2023/12/12 12:12:34;;;;;;;40.25;24.13;;;6.80;98.20;;;;;;5063551;28;20036;-80
2023/12/12 12:15:09;;;;;;;41.50;25.25;;;6.80;98.10;;;;;;5065951;28;20043;-79
2023/12/12 12:17:36;;;;;;;45.17;26.30;;;6.80;98.20;;;;;;5116172;27;20415;-79
2023/12/12 12:20:05;;;;;;;42.70;24.90;;;6.80;98.20;;;;;;5062836;28;20032;-78
2023/12/12 12:22:31;;;;;;;40.22;25.05;;;6.70;98.20;;;;;;5113282;27;20048;-79
2023/12/12 12:24:57;;;;;;;44.95;26.67;;;6.80;98.20;;;;;;5097016;28;20922;-78
2023/12/12 12:27:22;;;;;;;45.38;24.88;;;6.80;98.20;;;;;;5078384;28;20060;-79
2023/12/12 12:30:05;;;;;;;37.55;22.52;;;6.80;98.10;;;;;;5076381;28;20132;-84
2023/12/12 12:32:32;;;;;;;40.08;24.80;;;6.80;98.10;;;;;;5061209;28;20041;-80
2023/12/12 12:35:11;;;;;;;47.50;27.38;;;6.80;98.10;;;;;;5076993;28;20051;-78
2023/12/12 12:37:38;;;;;;;41.83;25.60;;;6.80;98.10;;;;;;5066818;28;20112;-81
2023/12/12 12:40:05;;;;;;;42.53;25.85;;;6.80;98.10;;;;;;5077228;28;20044;-79
2023/12/12 12:42:38;;;;;;;39.20;26.73;;;6.80;98.10;;;;;;5111581;28;20051;-78